logo
Search for airport 
image banner adimage banner adimage banner ad
image banner ad

OEDR - Dhahran / King Abdulaziz Air Base

Located in Al-Khobar, Saudi Arabia

ICAO - OEDR, IATA - DHA

Data provided by Airmate  

General information

Coordinates: N26°15'51" E50°9'9"
Elevation is 84 feet MSL.
 
View others Airports in Ash Sharqiyah

Operational data

Special qualification required
Current time UTC:
Current local time:
Weather
METAR: OEDR 202200Z 12005KT CAVOK 25/19 Q1006
View NOTAMs / SUP AIP / TFR affecting this airport [VIEW]
Communications frequencies: [VIEW]

Runways:

RWY identifierQFULength (ft)Width (ft)SurfaceLDA (ft)
16L165°11811148ASP
34R345°11811148ASP
16R165°12008148ASP
34L345°12008148ASP

Airport contact information

Address: Al-Khobar Saudi Arabia

Satellite view of OEDR